sensor_id;sensor_type;location;lat;lon;timestamp;pressure;altitude;pressure_sealevel;temperature;humidity
49723;BME280;43484;43.608;1.458;2024-03-23T00:53:31;99660.53;;;15.33;100.00
49723;BME280;43484;43.608;1.458;2024-03-23T00:55:59;99660.53;;;15.31;100.00
49723;BME280;43484;43.608;1.458;2024-03-23T00:58:25;99657.91;;;15.25;100.00
49723;BME280;43484;43.608;1.458;2024-03-23T01:00:51;99658.81;;;15.30;100.00
49723;BME280;43484;43.608;1.458;2024-03-23T01:03:16;99673.31;;;15.19;100.00
49723;BME280;43484;43.608;1.458;2024-03-23T01:05:42;99661.38;;;15.30;100.00
49723;BME280;43484;43.608;1.458;2024-03-23T01:08:07;99669.91;;;15.20;100.00
49723;BME280;43484;43.608;1.458;2024-03-23T01:10:33;99678.47;;;15.16;100.00
49723;BME280;43484;43.608;1.458;2024-03-23T01:12:59;99680.25;;;15.23;100.00
49723;BME280;43484;43.608;1.458;2024-03-23T01:15:24;99679.28;;;15.12;100.00
49723;BME280;43484;43.608;1.458;2024-03-23T01:17:50;99682.66;;;15.03;100.00
49723;BME280;43484;43.608;1.458;2024-03-23T01:20:15;99677.50;;;15.03;100.00
49723;BME280;43484;43.608;1.458;2024-03-23T01:22:42;99676.69;;;15.12;100.00
49723;BME280;43484;43.608;1.458;2024-03-23T01:25:08;99689.56;;;15.06;100.00
49723;BME280;43484;43.608;1.458;2024-03-23T01:27:33;99684.53;;;15.23;100.00
49723;BME280;43484;43.608;1.458;2024-03-23T01:29:59;99687.00;;;15.09;100.00
49723;BME280;43484;43.608;1.458;2024-03-23T01:32:25;99678.34;;;15.04;100.00
49723;BME280;43484;43.608;1.458;2024-03-23T01:34:50;99675.78;;;15.04;100.00
49723;BME280;43484;43.608;1.458;2024-03-23T01:37:16;99686.19;;;15.12;100.00
49723;BME280;43484;43.608;1.458;2024-03-23T01:39:42;99672.25;;;14.96;100.00
49723;BME280;43484;43.608;1.458;2024-03-23T01:42:07;99673.19;;;15.05;100.00
49723;BME280;43484;43.608;1.458;2024-03-23T01:44:33;99674.94;;;15.06;100.00
49723;BME280;43484;43.608;1.458;2024-03-23T01:46:58;99688.66;;;15.01;100.00
49723;BME280;43484;43.608;1.458;2024-03-23T01:49:24;99692.00;;;14.94;100.00
49723;BME280;43484;43.608;1.458;2024-03-23T01:51:50;99687.75;;;14.96;100.00
49723;BME280;43484;43.608;1.458;2024-03-23T01:54:16;99698.78;;;14.83;100.00
49723;BME280;43484;43.608;1.458;2024-03-23T01:56:41;99698.88;;;14.92;100.00
49723;BME280;43484;43.608;1.458;2024-03-23T01:59:07;99696.25;;;14.86;100.00
49723;BME280;43484;43.608;1.458;2024-03-23T02:01:35;99711.81;;;14.95;100.00
49723;BME280;43484;43.608;1.458;2024-03-23T02:04:04;99711.59;;;14.77;100.00
49723;BME280;43484;43.608;1.458;2024-03-23T02:06:29;99728.81;;;14.75;100.00
49723;BME280;43484;43.608;1.458;2024-03-23T02:08:55;99731.31;;;14.72;100.00
49723;BME280;43484;43.608;1.458;2024-03-23T02:11:21;99747.69;;;14.75;100.00
49723;BME280;43484;43.608;1.458;2024-03-23T02:13:46;99782.97;;;14.76;100.00
49723;BME280;43484;43.608;1.458;2024-03-23T02:16:12;99813.56;;;14.51;100.00
49723;BME280;43484;43.608;1.458;2024-03-23T02:18:39;99833.31;;;14.50;100.00
49723;BME280;43484;43.608;1.458;2024-03-23T02:21:05;99860.00;;;14.54;100.00
49723;BME280;43484;43.608;1.458;2024-03-23T02:23:31;99885.81;;;14.55;100.00
49723;BME280;43484;43.608;1.458;2024-03-23T02:25:56;99894.59;;;14.69;100.00
49723;BME280;43484;43.608;1.458;2024-03-23T02:28:22;99898.91;;;14.70;100.00
49723;BME280;43484;43.608;1.458;2024-03-23T02:30:49;99906.94;;;14.32;100.00
49723;BME280;43484;43.608;1.458;2024-03-23T02:33:15;99937.78;;;14.27;100.00
49723;BME280;43484;43.608;1.458;2024-03-23T02:35:41;99947.28;;;14.28;100.00
49723;BME280;43484;43.608;1.458;2024-03-23T02:38:07;99950.00;;;14.40;100.00
49723;BME280;43484;43.608;1.458;2024-03-23T02:40:32;99960.34;;;13.93;100.00
49723;BME280;43484;43.608;1.458;2024-03-23T02:42:58;99973.59;;;14.14;100.00
49723;BME280;43484;43.608;1.458;2024-03-23T02:45:24;100019.56;;;13.91;100.00
49723;BME280;43484;43.608;1.458;2024-03-23T02:47:49;100015.19;;;13.87;100.00
49723;BME280;43484;43.608;1.458;2024-03-23T02:50:19;100020.00;;;13.70;100.00
49723;BME280;43484;43.608;1.458;2024-03-23T02:52:45;100018.44;;;13.78;100.00
49723;BME280;43484;43.608;1.458;2024-03-23T02:55:11;100031.28;;;13.77;100.00
49723;BME280;43484;43.608;1.458;2024-03-23T02:57:37;100040.75;;;13.78;100.00
49723;BME280;43484;43.608;1.458;2024-03-23T03:00:03;100045.31;;;13.49;100.00
49723;BME280;43484;43.608;1.458;2024-03-23T03:02:29;100043.63;;;13.51;100.00
49723;BME280;43484;43.608;1.458;2024-03-23T03:04:54;100063.78;;;13.32;100.00
49723;BME280;43484;43.608;1.458;2024-03-23T03:07:20;100070.56;;;13.28;100.00
49723;BME280;43484;43.608;1.458;2024-03-23T03:09:46;100079.06;;;13.24;100.00
49723;BME280;43484;43.608;1.458;2024-03-23T03:12:12;100079.59;;;13.11;100.00
49723;BME280;43484;43.608;1.458;2024-03-23T03:14:37;100080.34;;;13.06;100.00
49723;BME280;43484;43.608;1.458;2024-03-23T03:17:03;100079.03;;;12.87;100.00
49723;BME280;43484;43.608;1.458;2024-03-23T03:19:29;100059.13;;;12.80;100.00
49723;BME280;43484;43.608;1.458;2024-03-23T03:21:55;100047.28;;;12.87;100.00
49723;BME280;43484;43.608;1.458;2024-03-23T03:24:21;100015.66;;;12.89;100.00
49723;BME280;43484;43.608;1.458;2024-03-23T03:26:47;100013.81;;;12.85;100.00
49723;BME280;43484;43.608;1.458;2024-03-23T03:29:13;100005.94;;;12.78;100.00
49723;BME280;43484;43.608;1.458;2024-03-23T03:31:39;99984.66;;;12.85;100.00
49723;BME280;43484;43.608;1.458;2024-03-23T03:34:04;99984.47;;;12.76;100.00
49723;BME280;43484;43.608;1.458;2024-03-23T03:36:30;99989.81;;;12.85;100.00
49723;BME280;43484;43.608;1.458;2024-03-23T03:38:56;99975.88;;;12.75;100.00
49723;BME280;43484;43.608;1.458;2024-03-23T03:41:21;99982.50;;;12.64;100.00
49723;BME280;43484;43.608;1.458;2024-03-23T03:43:47;99981.72;;;12.68;100.00
49723;BME280;43484;43.608;1.458;2024-03-23T03:46:13;99970.91;;;12.45;100.00
49723;BME280;43484;43.608;1.458;2024-03-23T03:48:38;99972.84;;;12.54;100.00
49723;BME280;43484;43.608;1.458;2024-03-23T03:51:04;99966.88;;;12.56;100.00
49723;BME280;43484;43.608;1.458;2024-03-23T03:53:30;99978.84;;;12.56;100.00
49723;BME280;43484;43.608;1.458;2024-03-23T03:55:56;99988.38;;;12.60;100.00
49723;BME280;43484;43.608;1.458;2024-03-23T03:58:25;99970.94;;;12.47;100.00
49723;BME280;43484;43.608;1.458;2024-03-23T04:00:51;99970.78;;;12.41;100.00
49723;BME280;43484;43.608;1.458;2024-03-23T04:03:16;99964.03;;;12.44;100.00
49723;BME280;43484;43.608;1.458;2024-03-23T04:05:42;99975.59;;;12.27;100.00
49723;BME280;43484;43.608;1.458;2024-03-23T04:08:08;99960.66;;;12.13;100.00
49723;BME280;43484;43.608;1.458;2024-03-23T04:10:33;99971.28;;;12.26;100.00
49723;BME280;43484;43.608;1.458;2024-03-23T04:13:00;99982.19;;;12.18;100.00
49723;BME280;43484;43.608;1.458;2024-03-23T04:15:26;99976.19;;;12.17;100.00
49723;BME280;43484;43.608;1.458;2024-03-23T04:17:51;99982.31;;;12.22;100.00
49723;BME280;43484;43.608;1.458;2024-03-23T04:20:17;99997.09;;;11.98;100.00
49723;BME280;43484;43.608;1.458;2024-03-23T04:22:43;99985.78;;;11.90;100.00
49723;BME280;43484;43.608;1.458;2024-03-23T04:25:09;99987.13;;;12.09;100.00
49723;BME280;43484;43.608;1.458;2024-03-23T04:27:37;100002.56;;;12.10;100.00
49723;BME280;43484;43.608;1.458;2024-03-23T04:30:03;100040.91;;;12.04;100.00
49723;BME280;43484;43.608;1.458;2024-03-23T04:32:30;100047.97;;;12.13;100.00
49723;BME280;43484;43.608;1.458;2024-03-23T04:34:56;100077.19;;;11.85;100.00
49723;BME280;43484;43.608;1.458;2024-03-23T04:37:22;100077.91;;;11.81;100.00
49723;BME280;43484;43.608;1.458;2024-03-23T04:39:48;100093.16;;;11.75;100.00
49723;BME280;43484;43.608;1.458;2024-03-23T04:42:17;100120.53;;;11.76;100.00
49723;BME280;43484;43.608;1.458;2024-03-23T04:44:43;100108.56;;;11.75;100.00
49723;BME280;43484;43.608;1.458;2024-03-23T04:47:09;100113.22;;;11.88;100.00
49723;BME280;43484;43.608;1.458;2024-03-23T04:49:34;100126.97;;;11.90;100.00
49723;BME280;43484;43.608;1.458;2024-03-23T04:52:05;100134.19;;;12.03;100.00
49723;BME280;43484;43.608;1.458;2024-03-23T04:54:31;100149.69;;;12.08;100.00
49723;BME280;43484;43.608;1.458;2024-03-23T04:57:00;100165.66;;;11.98;100.00
49723;BME280;43484;43.608;1.458;2024-03-23T04:59:26;100164.88;;;11.99;100.00
49723;BME280;43484;43.608;1.458;2024-03-23T05:01:51;100173.84;;;12.14;100.00
49723;BME280;43484;43.608;1.458;2024-03-23T05:04:17;100203.81;;;12.14;100.00
49723;BME280;43484;43.608;1.458;2024-03-23T05:06:43;100203.03;;;12.16;100.00
49723;BME280;43484;43.608;1.458;2024-03-23T05:09:08;100194.44;;;12.16;100.00
49723;BME280;43484;43.608;1.458;2024-03-23T05:11:37;100203.75;;;12.12;100.00
49723;BME280;43484;43.608;1.458;2024-03-23T05:14:03;100193.56;;;12.14;100.00
49723;BME280;43484;43.608;1.458;2024-03-23T05:16:29;100190.19;;;12.16;100.00
49723;BME280;43484;43.608;1.458;2024-03-23T05:18:55;100196.13;;;12.14;100.00
49723;BME280;43484;43.608;1.458;2024-03-23T05:21:20;100206.84;;;12.29;100.00
49723;BME280;43484;43.608;1.458;2024-03-23T05:23:46;100192.66;;;12.13;100.00
49723;BME280;43484;43.608;1.458;2024-03-23T05:26:13;100201.09;;;12.09;100.00
49723;BME280;43484;43.608;1.458;2024-03-23T05:28:39;100173.00;;;12.14;100.00
49723;BME280;43484;43.608;1.458;2024-03-23T05:31:04;100179.31;;;12.25;100.00
49723;BME280;43484;43.608;1.458;2024-03-23T05:33:30;100171.44;;;12.19;100.00
49723;BME280;43484;43.608;1.458;2024-03-23T05:36:00;100166.75;;;12.06;100.00
49723;BME280;43484;43.608;1.458;2024-03-23T05:38:26;100153.19;;;12.10;100.00
49723;BME280;43484;43.608;1.458;2024-03-23T05:40:57;100134.22;;;12.05;100.00
49723;BME280;43484;43.608;1.458;2024-03-23T05:43:23;100121.50;;;12.09;100.00
49723;BME280;43484;43.608;1.458;2024-03-23T05:45:56;100125.91;;;12.13;100.00
49723;BME280;43484;43.608;1.458;2024-03-23T05:48:22;100120.97;;;12.21;100.00
49723;BME280;43484;43.608;1.458;2024-03-23T05:50:48;100129.81;;;12.30;100.00
49723;BME280;43484;43.608;1.458;2024-03-23T05:53:15;100121.88;;;12.23;100.00
49723;BME280;43484;43.608;1.458;2024-03-23T05:55:41;100102.13;;;12.20;100.00
49723;BME280;43484;43.608;1.458;2024-03-23T05:58:06;100095.53;;;12.30;100.00
49723;BME280;43484;43.608;1.458;2024-03-23T06:00:32;100092.47;;;12.12;100.00
49723;BME280;43484;43.608;1.458;2024-03-23T06:02:58;100084.56;;;12.04;100.00
49723;BME280;43484;43.608;1.458;2024-03-23T06:05:23;100070.19;;;12.11;100.00
49723;BME280;43484;43.608;1.458;2024-03-23T06:07:49;100076.13;;;12.08;100.00
49723;BME280;43484;43.608;1.458;2024-03-23T06:10:15;100084.34;;;12.28;100.00
49723;BME280;43484;43.608;1.458;2024-03-23T06:12:41;100075.59;;;12.21;100.00
49723;BME280;43484;43.608;1.458;2024-03-23T06:15:07;100078.03;;;12.15;100.00
49723;BME280;43484;43.608;1.458;2024-03-23T06:17:38;100079.69;;;12.13;100.00
49723;BME280;43484;43.608;1.458;2024-03-23T06:20:05;100079.50;;;12.07;100.00
49723;BME280;43484;43.608;1.458;2024-03-23T06:22:33;100086.50;;;12.13;100.00
49723;BME280;43484;43.608;1.458;2024-03-23T06:24:59;100073.13;;;12.24;100.00
49723;BME280;43484;43.608;1.458;2024-03-23T06:27:25;100070.22;;;12.12;100.00
49723;BME280;43484;43.608;1.458;2024-03-23T06:29:51;100063.59;;;12.20;100.00
49723;BME280;43484;43.608;1.458;2024-03-23T06:32:17;100048.75;;;12.09;100.00
49723;BME280;43484;43.608;1.458;2024-03-23T06:34:43;100031.03;;;11.87;100.00
49723;BME280;43484;43.608;1.458;2024-03-23T06:37:08;100012.31;;;11.92;100.00
49723;BME280;43484;43.608;1.458;2024-03-23T06:39:36;100004.66;;;11.63;100.00
49723;BME280;43484;43.608;1.458;2024-03-23T06:42:02;99989.09;;;11.57;100.00
49723;BME280;43484;43.608;1.458;2024-03-23T06:44:28;99992.19;;;11.45;100.00
49723;BME280;43484;43.608;1.458;2024-03-23T06:46:55;99991.22;;;11.42;100.00
49723;BME280;43484;43.608;1.458;2024-03-23T06:49:20;99997.66;;;11.27;100.00
49723;BME280;43484;43.608;1.458;2024-03-23T06:51:46;100021.56;;;11.26;100.00
49723;BME280;43484;43.608;1.458;2024-03-23T06:54:12;100023.75;;;11.14;100.00
49723;BME280;43484;43.608;1.458;2024-03-23T06:56:37;100048.38;;;11.09;100.00
49723;BME280;43484;43.608;1.458;2024-03-23T06:59:03;100069.63;;;11.05;100.00
49723;BME280;43484;43.608;1.458;2024-03-23T07:01:29;100078.13;;;11.04;100.00
49723;BME280;43484;43.608;1.458;2024-03-23T07:03:55;100087.75;;;11.11;100.00
49723;BME280;43484;43.608;1.458;2024-03-23T07:06:21;100098.50;;;11.00;100.00
49723;BME280;43484;43.608;1.458;2024-03-23T07:08:47;100117.59;;;11.09;100.00
49723;BME280;43484;43.608;1.458;2024-03-23T07:11:23;100131.19;;;11.07;100.00
49723;BME280;43484;43.608;1.458;2024-03-23T07:13:50;100142.13;;;11.01;100.00
49723;BME280;43484;43.608;1.458;2024-03-23T07:16:16;100170.47;;;11.06;100.00
49723;BME280;43484;43.608;1.458;2024-03-23T07:18:42;100186.78;;;11.08;100.00
49723;BME280;43484;43.608;1.458;2024-03-23T07:21:08;100202.16;;;11.08;100.00
49723;BME280;43484;43.608;1.458;2024-03-23T07:23:33;100218.72;;;11.17;100.00
49723;BME280;43484;43.608;1.458;2024-03-23T07:26:04;100231.53;;;10.92;100.00
49723;BME280;43484;43.608;1.458;2024-03-23T07:28:31;100233.34;;;10.95;100.00
49723;BME280;43484;43.608;1.458;2024-03-23T07:33:30;100238.53;;;10.96;100.00
49723;BME280;43484;43.608;1.458;2024-03-23T07:35:56;100231.34;;;10.63;100.00
49723;BME280;43484;43.608;1.458;2024-03-23T07:38:21;100214.41;;;10.66;100.00
49723;BME280;43484;43.608;1.458;2024-03-23T07:40:47;100212.28;;;10.31;100.00
49723;BME280;43484;43.608;1.458;2024-03-23T07:43:15;100216.56;;;10.32;100.00
49723;BME280;43484;43.608;1.458;2024-03-23T07:45:41;100217.94;;;10.46;100.00
49723;BME280;43484;43.608;1.458;2024-03-23T07:48:07;100215.03;;;10.37;100.00
49723;BME280;43484;43.608;1.458;2024-03-23T07:50:32;100215.03;;;10.13;100.00
49723;BME280;43484;43.608;1.458;2024-03-23T07:52:58;100206.91;;;10.25;100.00
49723;BME280;43484;43.608;1.458;2024-03-23T07:55:24;100210.78;;;10.14;100.00
49723;BME280;43484;43.608;1.458;2024-03-23T07:57:51;100221.25;;;10.20;100.00
49723;BME280;43484;43.608;1.458;2024-03-23T08:00:17;100214.16;;;10.13;100.00
49723;BME280;43484;43.608;1.458;2024-03-23T08:02:42;100235.59;;;10.17;100.00
49723;BME280;43484;43.608;1.458;2024-03-23T08:05:08;100246.72;;;10.17;100.00
49723;BME280;43484;43.608;1.458;2024-03-23T08:07:34;100255.94;;;9.91;100.00
49723;BME280;43484;43.608;1.458;2024-03-23T08:09:59;100277.69;;;9.80;100.00
49723;BME280;43484;43.608;1.458;2024-03-23T08:12:25;100285.50;;;9.63;100.00
49723;BME280;43484;43.608;1.458;2024-03-23T08:14:51;100286.56;;;9.27;100.00
49723;BME280;43484;43.608;1.458;2024-03-23T08:17:16;100306.19;;;9.07;100.00
49723;BME280;43484;43.608;1.458;2024-03-23T08:19:42;100309.50;;;9.25;100.00
49723;BME280;43484;43.608;1.458;2024-03-23T08:22:07;100320.38;;;9.01;100.00
49723;BME280;43484;43.608;1.458;2024-03-23T08:24:34;100331.63;;;9.25;100.00
49723;BME280;43484;43.608;1.458;2024-03-23T08:27:00;100339.47;;;9.09;100.00
49723;BME280;43484;43.608;1.458;2024-03-23T08:29:26;100338.34;;;9.02;100.00
49723;BME280;43484;43.608;1.458;2024-03-23T08:31:52;100353.13;;;9.09;100.00
49723;BME280;43484;43.608;1.458;2024-03-23T08:34:17;100348.09;;;9.11;100.00
49723;BME280;43484;43.608;1.458;2024-03-23T08:36:43;100347.41;;;9.15;100.00
49723;BME280;43484;43.608;1.458;2024-03-23T08:39:09;100347.06;;;9.07;100.00
49723;BME280;43484;43.608;1.458;2024-03-23T08:41:34;100351.25;;;9.05;100.00
49723;BME280;43484;43.608;1.458;2024-03-23T08:44:00;100352.91;;;9.24;100.00
49723;BME280;43484;43.608;1.458;2024-03-23T08:46:26;100365.28;;;9.15;100.00
49723;BME280;43484;43.608;1.458;2024-03-23T08:48:51;100363.53;;;9.14;100.00
49723;BME280;43484;43.608;1.458;2024-03-23T08:51:18;100359.69;;;9.23;100.00
49723;BME280;43484;43.608;1.458;2024-03-23T08:53:44;100358.56;;;8.78;100.00
49723;BME280;43484;43.608;1.458;2024-03-23T08:56:10;100363.91;;;9.02;100.00
49723;BME280;43484;43.608;1.458;2024-03-23T08:58:37;100367.50;;;9.26;100.00
49723;BME280;43484;43.608;1.458;2024-03-23T09:01:08;100368.13;;;9.21;100.00
49723;BME280;43484;43.608;1.458;2024-03-23T09:03:35;100369.13;;;9.24;100.00
49723;BME280;43484;43.608;1.458;2024-03-23T09:06:02;100350.16;;;9.59;100.00
49723;BME280;43484;43.608;1.458;2024-03-23T09:08:28;100356.47;;;9.48;100.00
49723;BME280;43484;43.608;1.458;2024-03-23T09:10:54;100311.88;;;9.41;100.00
49723;BME280;43484;43.608;1.458;2024-03-23T09:13:20;100242.91;;;9.43;100.00
49723;BME280;43484;43.608;1.458;2024-03-23T09:15:52;100177.69;;;9.52;100.00
49723;BME280;43484;43.608;1.458;2024-03-23T09:18:22;100148.19;;;9.84;100.00
49723;BME280;43484;43.608;1.458;2024-03-23T09:20:47;100091.66;;;9.78;100.00
49723;BME280;43484;43.608;1.458;2024-03-23T09:23:13;100083.75;;;9.94;100.00
49723;BME280;43484;43.608;1.458;2024-03-23T09:25:39;100099.22;;;9.97;100.00
49723;BME280;43484;43.608;1.458;2024-03-23T09:28:05;100115.84;;;10.08;100.00
49723;BME280;43484;43.608;1.458;2024-03-23T09:30:36;100142.25;;;10.31;100.00
49723;BME280;43484;43.608;1.458;2024-03-23T09:33:08;100200.22;;;10.29;100.00
49723;BME280;43484;43.608;1.458;2024-03-23T09:35:43;100295.16;;;10.11;100.00
49723;BME280;43484;43.608;1.458;2024-03-23T09:38:10;100339.16;;;10.02;100.00
49723;BME280;43484;43.608;1.458;2024-03-23T09:40:42;100369.72;;;10.20;100.00
49723;BME280;43484;43.608;1.458;2024-03-23T09:43:09;100422.13;;;10.28;100.00
49723;BME280;43484;43.608;1.458;2024-03-23T09:45:44;100462.53;;;10.15;100.00
49723;BME280;43484;43.608;1.458;2024-03-23T09:48:11;100451.88;;;10.47;100.00
49723;BME280;43484;43.608;1.458;2024-03-23T09:50:41;100491.19;;;10.47;100.00
49723;BME280;43484;43.608;1.458;2024-03-23T09:53:08;100504.03;;;10.69;100.00
49723;BME280;43484;43.608;1.458;2024-03-23T09:55:35;100539.97;;;10.71;100.00
49723;BME280;43484;43.608;1.458;2024-03-23T09:58:02;100586.47;;;10.59;100.00
49723;BME280;43484;43.608;1.458;2024-03-23T10:00:28;100606.06;;;10.59;100.00
49723;BME280;43484;43.608;1.458;2024-03-23T10:02:57;100609.50;;;11.00;100.00
49723;BME280;43484;43.608;1.458;2024-03-23T10:05:30;100624.44;;;11.10;100.00
49723;BME280;43484;43.608;1.458;2024-03-23T10:10:43;100663.78;;;11.11;100.00
49723;BME280;43484;43.608;1.458;2024-03-23T10:13:08;100676.53;;;10.89;100.00
49723;BME280;43484;43.608;1.458;2024-03-23T10:15:35;100673.66;;;11.02;100.00
49723;BME280;43484;43.608;1.458;2024-03-23T10:18:18;100668.56;;;11.24;100.00
49723;BME280;43484;43.608;1.458;2024-03-23T10:23:28;100684.63;;;11.18;100.00
49723;BME280;43484;43.608;1.458;2024-03-23T10:25:54;100686.06;;;11.34;100.00
49723;BME280;43484;43.608;1.458;2024-03-23T10:28:20;100678.31;;;11.32;100.00
49723;BME280;43484;43.608;1.458;2024-03-23T10:30:45;100680.09;;;11.33;100.00
49723;BME280;43484;43.608;1.458;2024-03-23T10:33:11;100698.13;;;11.14;100.00
49723;BME280;43484;43.608;1.458;2024-03-23T10:35:37;100680.59;;;11.47;100.00
49723;BME280;43484;43.608;1.458;2024-03-23T10:38:07;100675.53;;;11.26;100.00
49723;BME280;43484;43.608;1.458;2024-03-23T10:40:37;100680.59;;;11.68;100.00
49723;BME280;43484;43.608;1.458;2024-03-23T10:43:03;100679.19;;;11.76;100.00
49723;BME280;43484;43.608;1.458;2024-03-23T10:45:30;100699.16;;;11.40;100.00
49723;BME280;43484;43.608;1.458;2024-03-23T10:47:56;100695.63;;;11.59;100.00
49723;BME280;43484;43.608;1.458;2024-03-23T10:50:22;100682.50;;;11.72;100.00
49723;BME280;43484;43.608;1.458;2024-03-23T10:52:48;100682.41;;;11.92;100.00
49723;BME280;43484;43.608;1.458;2024-03-23T10:55:15;100680.31;;;11.82;100.00
49723;BME280;43484;43.608;1.458;2024-03-23T10:57:49;100672.63;;;12.06;100.00
49723;BME280;43484;43.608;1.458;2024-03-23T11:00:16;100673.00;;;11.93;100.00
49723;BME280;43484;43.608;1.458;2024-03-23T11:02:42;100672.75;;;11.85;100.00
49723;BME280;43484;43.608;1.458;2024-03-23T11:07:55;100677.84;;;12.31;100.00
49723;BME280;43484;43.608;1.458;2024-03-23T11:10:26;100676.50;;;11.95;100.00
49723;BME280;43484;43.608;1.458;2024-03-23T11:12:53;100666.47;;;12.01;100.00
49723;BME280;43484;43.608;1.458;2024-03-23T11:15:19;100660.09;;;12.37;100.00
49723;BME280;43484;43.608;1.458;2024-03-23T11:20:33;100655.06;;;12.40;100.00
49723;BME280;43484;43.608;1.458;2024-03-23T11:22:59;100655.69;;;12.11;100.00
49723;BME280;43484;43.608;1.458;2024-03-23T11:25:26;100648.03;;;12.36;100.00
49723;BME280;43484;43.608;1.458;2024-03-23T11:27:54;100640.63;;;12.69;100.00
49723;BME280;43484;43.608;1.458;2024-03-23T11:30:24;100659.88;;;12.56;100.00
49723;BME280;43484;43.608;1.458;2024-03-23T11:32:52;100654.03;;;12.35;100.00
49723;BME280;43484;43.608;1.458;2024-03-23T11:35:32;100638.16;;;12.46;100.00
49723;BME280;43484;43.608;1.458;2024-03-23T11:38:11;100630.34;;;12.43;100.00
49723;BME280;43484;43.608;1.458;2024-03-23T11:40:39;100628.28;;;12.84;100.00
49723;BME280;43484;43.608;1.458;2024-03-23T11:43:09;100623.53;;;12.69;100.00
49723;BME280;43484;43.608;1.458;2024-03-23T11:45:38;100614.97;;;12.70;100.00
49723;BME280;43484;43.608;1.458;2024-03-23T11:48:12;100605.84;;;12.80;100.00
49723;BME280;43484;43.608;1.458;2024-03-23T11:50:40;100612.53;;;12.75;100.00
49723;BME280;43484;43.608;1.458;2024-03-23T11:55:55;100607.00;;;12.88;100.00
49723;BME280;43484;43.608;1.458;2024-03-23T11:58:23;100590.72;;;13.14;100.00
49723;BME280;43484;43.608;1.458;2024-03-23T12:00:56;100591.09;;;13.26;100.00
49723;BME280;43484;43.608;1.458;2024-03-23T12:03:29;100610.81;;;13.00;100.00
49723;BME280;43484;43.608;1.458;2024-03-23T12:05:56;100591.31;;;13.05;100.00
49723;BME280;43484;43.608;1.458;2024-03-23T12:08:29;100588.22;;;13.45;100.00
49723;BME280;43484;43.608;1.458;2024-03-23T12:11:12;100587.44;;;13.18;100.00
49723;BME280;43484;43.608;1.458;2024-03-23T12:13:39;100579.78;;;13.21;100.00
49723;BME280;43484;43.608;1.458;2024-03-23T12:16:17;100575.38;;;13.17;100.00
49723;BME280;43484;43.608;1.458;2024-03-23T12:18:49;100565.53;;;13.32;100.00
49723;BME280;43484;43.608;1.458;2024-03-23T12:21:15;100565.53;;;13.32;100.00
49723;BME280;43484;43.608;1.458;2024-03-23T12:23:42;100556.84;;;13.28;100.00
49723;BME280;43484;43.608;1.458;2024-03-23T12:26:12;100556.13;;;13.32;100.00
49723;BME280;43484;43.608;1.458;2024-03-23T12:28:38;100560.16;;;13.52;100.00
49723;BME280;43484;43.608;1.458;2024-03-23T12:31:04;100557.16;;;13.67;100.00
49723;BME280;43484;43.608;1.458;2024-03-23T12:33:31;100547.44;;;13.29;100.00
49723;BME280;43484;43.608;1.458;2024-03-23T12:35:56;100540.56;;;13.57;100.00
49723;BME280;43484;43.608;1.458;2024-03-23T12:38:22;100542.88;;;13.78;100.00
49723;BME280;43484;43.608;1.458;2024-03-23T12:40:48;100543.75;;;13.78;100.00
49723;BME280;43484;43.608;1.458;2024-03-23T12:43:15;100529.66;;;13.66;100.00
49723;BME280;43484;43.608;1.458;2024-03-23T12:45:45;100523.72;;;13.68;100.00
49723;BME280;43484;43.608;1.458;2024-03-23T12:48:11;100519.56;;;13.73;100.00
49723;BME280;43484;43.608;1.458;2024-03-23T12:50:36;100508.31;;;13.40;100.00
49723;BME280;43484;43.608;1.458;2024-03-23T12:53:03;100515.00;;;13.95;100.00
49723;BME280;43484;43.608;1.458;2024-03-23T12:55:29;100511.25;;;13.83;100.00
49723;BME280;43484;43.608;1.458;2024-03-23T12:57:54;100498.97;;;13.73;100.00
49723;BME280;43484;43.608;1.458;2024-03-23T13:00:20;100500.38;;;13.94;100.00
49723;BME280;43484;43.608;1.458;2024-03-23T13:02:46;100484.00;;;14.24;100.00
49723;BME280;43484;43.608;1.458;2024-03-23T13:05:11;100490.53;;;14.12;100.00
49723;BME280;43484;43.608;1.458;2024-03-23T13:07:37;100473.88;;;13.98;100.00
49723;BME280;43484;43.608;1.458;2024-03-23T13:10:05;100482.84;;;14.46;100.00
49723;BME280;43484;43.608;1.458;2024-03-23T13:12:31;100477.91;;;14.21;100.00
49723;BME280;43484;43.608;1.458;2024-03-23T13:14:58;100484.09;;;13.95;100.00
49723;BME280;43484;43.608;1.458;2024-03-23T13:17:24;100470.81;;;13.79;100.00
49723;BME280;43484;43.608;1.458;2024-03-23T13:19:50;100462.13;;;14.09;100.00
49723;BME280;43484;43.608;1.458;2024-03-23T13:22:16;100463.53;;;13.65;100.00
49723;BME280;43484;43.608;1.458;2024-03-23T13:24:41;100450.75;;;14.01;100.00
49723;BME280;43484;43.608;1.458;2024-03-23T13:27:08;100452.81;;;14.14;100.00
49723;BME280;43484;43.608;1.458;2024-03-23T13:29:34;100442.88;;;14.27;100.00
49723;BME280;43484;43.608;1.458;2024-03-23T13:32:01;100453.19;;;14.27;100.00
49723;BME280;43484;43.608;1.458;2024-03-23T13:34:26;100446.44;;;14.00;100.00
49723;BME280;43484;43.608;1.458;2024-03-23T13:36:53;100443.94;;;14.03;100.00
49723;BME280;43484;43.608;1.458;2024-03-23T13:39:18;100432.94;;;14.08;100.00
49723;BME280;43484;43.608;1.458;2024-03-23T13:41:45;100449.09;;;14.03;100.00
49723;BME280;43484;43.608;1.458;2024-03-23T13:44:12;100448.03;;;13.95;100.00
49723;BME280;43484;43.608;1.458;2024-03-23T13:46:38;100433.31;;;13.91;100.00
49723;BME280;43484;43.608;1.458;2024-03-23T13:49:05;100433.94;;;14.15;100.00